« Back
NWS Peachtree City, Ga » Text Product » CSG Terminal Aerodrome Forecast


Printer-friendly Version
Current Version              Previous Versions:   1  2  3  4  5  6  7  8  9  

Terminal Aerodrome Forecast

119
FTUS42 KFFC 251124
TAFCSG
TAF
KCSG 251124Z 2512/2612 10004KT P6SM FEW250
     FM251400 15004KT P6SM SCT250
     FM251600 18004KT P6SM SCT050 BKN250
     FM260100 17004KT P6SM FEW250=

USA.gov is the U.S. government's official web portal to all federal, state and local government web resources and services.